createdAt,value
2018-06-09T00:00:46.389Z,181.12
2018-06-09T00:01:53.563Z,176.40
2018-06-09T00:03:02.961Z,178.30
2018-06-09T00:04:09.558Z,176.95
2018-06-09T00:05:16.550Z,175.15
2018-06-09T00:06:22.118Z,192.10
2018-06-09T00:07:29.866Z,182.27
2018-06-09T00:08:35.795Z,182.97
2018-06-09T00:09:46.493Z,190.10
2018-06-09T00:10:54.154Z,182.23
2018-06-09T00:11:59.576Z,185.22
2018-06-09T00:13:05.260Z,184.57
2018-06-09T00:14:12.101Z,188.40
2018-06-09T00:15:18.038Z,189.65
2018-06-09T00:16:23.743Z,181.12
2018-06-09T00:17:29.353Z,181.70
2018-06-09T00:18:34.695Z,181.95
2018-06-09T00:19:41.640Z,185.30
2018-06-09T00:20:48.325Z,185.00
2018-06-09T00:21:53.853Z,186.03
2018-06-09T00:22:59.914Z,189.03
2018-06-09T00:24:05.757Z,180.70
2018-06-09T00:25:12.646Z,186.75
2018-06-09T00:26:18.896Z,197.82
2018-06-09T00:27:24.608Z,199.55
2018-06-09T00:28:29.911Z,193.17
2018-06-09T00:29:36.091Z,184.10
2018-06-09T00:30:42.137Z,227.10
2018-06-09T00:31:47.435Z,198.30
2018-06-09T00:32:53.457Z,229.30
2018-06-09T00:33:58.735Z,202.60
2018-06-09T00:35:05.761Z,217.60
2018-06-09T00:36:12.223Z,195.03
2018-06-09T00:37:18.239Z,175.27
2018-06-09T00:38:24.221Z,187.77
2018-06-09T00:39:30.274Z,187.85
2018-06-09T00:40:36.258Z,184.65
2018-06-09T00:41:41.576Z,184.65
2018-06-09T00:42:48.538Z,178.95
2018-06-09T00:43:54.462Z,185.77
2018-06-09T00:45:00.587Z,181.45
2018-06-09T00:46:07.459Z,184.35
2018-06-09T00:47:12.605Z,185.45
2018-06-09T00:48:18.202Z,189.75
2018-06-09T00:49:24.358Z,199.42
2018-06-09T00:50:29.841Z,182.20
2018-06-09T00:51:42.053Z,184.57
2018-06-09T00:52:48.505Z,190.55
2018-06-09T00:53:56.330Z,204.38
2018-06-09T00:55:01.806Z,190.12
2018-06-09T00:56:12.102Z,195.83
2018-06-09T00:57:17.761Z,186.83
2018-06-09T00:58:24.332Z,202.60
2018-06-09T00:59:29.522Z,201.95
2018-06-09T01:00:34.705Z,203.02
2018-06-09T01:01:40.207Z,197.70
2018-06-09T01:02:46.776Z,202.85
2018-06-09T01:03:52.064Z,200.45
2018-06-09T01:04:57.262Z,184.25
2018-06-09T01:06:02.808Z,205.07
2018-06-09T01:07:10.056Z,198.32
2018-06-09T01:08:16.033Z,209.07
2018-06-09T01:09:21.303Z,209.65
2018-06-09T01:10:27.293Z,204.93
2018-06-09T01:11:33.512Z,237.10
2018-06-09T01:12:38.804Z,223.30
2018-06-09T01:13:46.504Z,249.27
2018-06-09T01:14:51.951Z,267.07
2018-06-09T01:15:57.572Z,279.18
2018-06-09T01:17:05.778Z,252.45
2018-06-09T01:18:11.278Z,247.55
2018-06-09T01:19:17.639Z,268.65
2018-06-09T01:20:25.698Z,224.62
2018-06-09T01:21:31.294Z,226.15
2018-06-09T01:22:36.564Z,235.20
2018-06-09T01:23:41.779Z,247.45
2018-06-09T01:24:47.912Z,243.95
2018-06-09T01:25:53.124Z,248.47
2018-06-09T01:26:58.437Z,262.90
2018-06-09T01:28:03.833Z,241.45
2018-06-09T01:29:09.117Z,237.70
2018-06-09T01:30:14.408Z,249.55
2018-06-09T01:31:21.813Z,240.72
2018-06-09T01:32:27.035Z,234.80
2018-06-09T01:33:32.453Z,226.88
2018-06-09T01:34:38.672Z,233.45
2018-06-09T01:35:45.212Z,222.58
2018-06-09T01:36:50.547Z,236.45
2018-06-09T01:37:56.667Z,222.70
2018-06-09T01:39:02.110Z,215.07
2018-06-09T01:40:08.191Z,206.23
2018-06-09T01:41:15.869Z,221.75
2018-06-09T01:42:21.155Z,204.53
2018-06-09T01:43:26.484Z,213.10
2018-06-09T01:44:32.225Z,209.12
2018-06-09T01:45:38.042Z,205.00
2018-06-09T01:46:43.982Z,210.97
2018-06-09T01:47:49.387Z,216.63
2018-06-09T01:48:54.558Z,224.98
2018-06-09T01:50:00.878Z,218.42
2018-06-09T01:51:04.658Z,221.55
2018-06-09T01:52:08.468Z,229.90
2018-06-09T01:53:12.224Z,241.25
2018-06-09T01:54:16.006Z,239.45
2018-06-09T01:55:21.355Z,236.60
2018-06-09T01:56:25.406Z,239.30
2018-06-09T01:57:29.376Z,251.70
2018-06-09T01:58:34.609Z,233.90
2018-06-09T01:59:38.385Z,244.75
2018-06-09T02:00:42.396Z,257.60
2018-06-09T02:01:47.129Z,253.77
2018-06-09T02:02:51.128Z,257.85
2018-06-09T02:03:56.587Z,268.85
2018-06-09T02:05:00.618Z,250.62
2018-06-09T02:06:04.386Z,267.27
2018-06-09T02:07:08.216Z,271.50
2018-06-09T02:08:11.980Z,266.50
2018-06-09T02:09:15.886Z,272.58
2018-06-09T02:10:19.724Z,252.45
2018-06-09T02:11:23.482Z,268.40
2018-06-09T02:12:27.403Z,268.17
2018-06-09T02:13:31.202Z,273.48
2018-06-09T02:14:36.784Z,276.88
2018-06-09T02:15:40.644Z,276.03
2018-06-09T02:16:44.415Z,260.25
2018-06-09T02:17:48.191Z,275.02
2018-06-09T02:18:51.971Z,296.27
2018-06-09T02:19:55.745Z,276.65
2018-06-09T02:20:59.538Z,268.63
2018-06-09T02:22:03.438Z,284.80
2018-06-09T02:23:08.546Z,284.90
2018-06-09T02:24:12.628Z,277.93
2018-06-09T02:25:16.518Z,301.15
2018-06-09T02:26:20.255Z,284.00
2018-06-09T02:27:24.047Z,288.30
2018-06-09T02:28:27.864Z,294.30
2018-06-09T02:29:31.936Z,275.60
2018-06-09T02:30:35.758Z,294.37
2018-06-09T02:31:39.500Z,296.85
2018-06-09T02:32:44.471Z,288.45
2018-06-09T02:33:48.829Z,304.55
2018-06-09T02:34:52.665Z,289.25
2018-06-09T02:35:56.499Z,282.85
2018-06-09T02:37:00.283Z,292.62
2018-06-09T02:38:04.979Z,301.58
2018-06-09T02:39:08.746Z,291.20
2018-06-09T02:40:12.599Z,281.87
2018-06-09T02:41:16.673Z,268.63
2018-06-09T02:42:20.422Z,276.25
2018-06-09T02:43:24.466Z,285.73
2018-06-09T02:44:28.219Z,282.85
2018-06-09T02:45:32.027Z,273.65
2018-06-09T02:46:36.095Z,269.30
2018-06-09T02:47:39.856Z,269.25
2018-06-09T02:48:43.629Z,260.77
2018-06-09T02:49:47.394Z,271.13
2018-06-09T02:50:51.144Z,252.78
2018-06-09T02:51:55.211Z,242.03
2018-06-09T02:52:58.978Z,248.15
2018-06-09T02:54:02.767Z,237.55
2018-06-09T02:55:06.551Z,241.20
2018-06-09T02:56:10.335Z,237.50
2018-06-09T02:57:15.062Z,237.75
2018-06-09T02:58:18.876Z,229.70
2018-06-09T02:59:22.696Z,225.45
2018-06-09T03:00:26.461Z,229.75
2018-06-09T03:01:30.670Z,235.02
2018-06-09T03:02:34.589Z,262.25
2018-06-09T03:03:39.676Z,265.37
2018-06-09T03:04:46.405Z,275.00
2018-06-09T03:05:50.587Z,268.00
2018-06-09T03:06:54.357Z,261.57
2018-06-09T03:07:58.144Z,278.02
2018-06-09T03:09:02.300Z,277.93
2018-06-09T03:10:06.054Z,266.35
2018-06-09T03:11:09.856Z,280.57
2018-06-09T03:12:13.675Z,290.40
2018-06-09T03:13:17.438Z,305.50
2018-06-09T03:14:21.221Z,274.20
2018-06-09T03:15:24.979Z,289.27
2018-06-09T03:16:28.866Z,264.60
2018-06-09T03:17:34.161Z,262.27
2018-06-09T03:18:38.008Z,259.80
2018-06-09T03:19:41.792Z,253.20
2018-06-09T03:20:45.920Z,256.68
2018-06-09T03:21:49.703Z,254.87
2018-06-09T03:22:53.588Z,261.45
2018-06-09T03:23:57.354Z,272.07
2018-06-09T03:25:01.257Z,265.18
2018-06-09T03:26:05.432Z,271.45
2018-06-09T03:27:09.940Z,257.67
2018-06-09T03:28:13.735Z,261.17
2018-06-09T03:29:17.465Z,286.60
2018-06-09T03:30:21.230Z,308.17
2018-06-09T03:31:26.054Z,282.25
2018-06-09T03:32:30.140Z,303.98
2018-06-09T03:33:33.973Z,293.35
2018-06-09T03:34:37.737Z,290.92
2018-06-09T03:35:41.487Z,296.23
2018-06-09T03:36:45.380Z,281.17
2018-06-09T03:37:49.164Z,291.82
2018-06-09T03:38:52.930Z,296.43
2018-06-09T03:39:56.682Z,278.25
2018-06-09T03:41:00.421Z,279.07
2018-06-09T03:42:04.417Z,299.00
2018-06-09T03:43:08.872Z,288.93
2018-06-09T03:44:13.379Z,278.60
2018-06-09T03:45:17.120Z,286.07
2018-06-09T03:46:22.177Z,284.57
2018-06-09T03:47:26.833Z,303.58
2018-06-09T03:48:32.178Z,291.02
2018-06-09T03:49:37.213Z,275.52
2018-06-09T03:50:41.298Z,266.05
2018-06-09T03:51:45.314Z,263.30
2018-06-09T03:52:49.124Z,263.75
2018-06-09T03:53:53.036Z,275.95
2018-06-09T03:54:56.844Z,248.85
2018-06-09T03:56:00.661Z,252.70
2018-06-09T03:57:04.403Z,251.27
2018-06-09T03:58:08.622Z,257.10
2018-06-09T03:59:12.401Z,250.55
2018-06-09T04:00:16.301Z,252.32
2018-06-09T04:01:20.516Z,241.10
2018-06-09T04:02:24.261Z,260.65
2018-06-09T04:03:28.973Z,246.70
2018-06-09T04:04:32.726Z,237.50
2018-06-09T04:05:36.632Z,242.50
2018-06-09T04:06:40.409Z,241.10
2018-06-09T04:07:44.167Z,242.50
2018-06-09T04:08:47.975Z,230.75
2018-06-09T04:09:51.705Z,241.42
2018-06-09T04:10:55.602Z,243.97
2018-06-09T04:11:59.773Z,230.25
2018-06-09T04:13:04.712Z,240.10
2018-06-09T04:14:08.436Z,240.18
2018-06-09T04:15:13.223Z,241.47
2018-06-09T04:16:17.025Z,229.78
2018-06-09T04:17:22.074Z,227.40
2018-06-09T04:18:25.845Z,224.85
2018-06-09T04:19:30.006Z,225.32
2018-06-09T04:20:35.185Z,228.85
2018-06-09T04:21:39.020Z,227.28
2018-06-09T04:22:42.768Z,234.37
2018-06-09T04:23:46.542Z,220.65
2018-06-09T04:24:50.541Z,232.00
2018-06-09T04:25:54.705Z,234.62
2018-06-09T04:26:59.547Z,217.77
2018-06-09T04:28:03.740Z,221.03
2018-06-09T04:29:07.530Z,222.88
2018-06-09T04:30:11.296Z,225.30
2018-06-09T04:32:50.516Z,209.95
2018-06-09T04:33:55.483Z,213.52
2018-06-09T04:34:59.266Z,212.97
2018-06-09T04:36:03.038Z,204.93
2018-06-09T04:37:06.930Z,216.70
2018-06-09T04:38:10.710Z,207.40
2018-06-09T04:39:14.473Z,211.67
2018-06-09T04:40:18.538Z,209.95
2018-06-09T04:41:22.485Z,211.37
2018-06-09T04:42:26.300Z,203.22
2018-06-09T04:43:30.045Z,209.80
2018-06-09T04:44:33.810Z,206.15
2018-06-09T04:45:37.844Z,213.60
2018-06-09T04:46:42.520Z,212.45
2018-06-09T04:47:46.413Z,200.97
2018-06-09T04:48:51.482Z,200.53
2018-06-09T04:49:55.670Z,204.80
2018-06-09T04:50:59.771Z,209.25
2018-06-09T04:52:03.713Z,214.78
2018-06-09T04:53:10.590Z,200.30
2018-06-09T04:54:14.428Z,211.80
2018-06-09T04:55:18.187Z,206.82
2018-06-09T04:56:22.766Z,206.55
2018-06-09T04:57:26.888Z,202.38
2018-06-09T04:58:33.679Z,191.80
2018-06-09T04:59:38.130Z,205.25
2018-06-09T05:00:41.912Z,204.93
2018-06-09T05:01:45.722Z,187.30
2018-06-09T05:02:52.808Z,183.97
2018-06-09T05:03:56.817Z,190.45
2018-06-09T05:05:00.708Z,181.82
2018-06-09T05:06:04.913Z,190.90
2018-06-09T05:07:08.977Z,187.05
2018-06-09T05:08:12.878Z,196.80
2018-06-09T05:09:16.708Z,191.03
2018-06-09T05:10:20.574Z,211.35
2018-06-09T05:11:25.189Z,199.87
2018-06-09T05:12:28.975Z,196.98
2018-06-09T05:13:32.776Z,212.40
2018-06-09T05:14:36.855Z,213.90
2018-06-09T05:15:40.667Z,195.68
2018-06-09T05:16:44.484Z,201.98
2018-06-09T05:17:48.578Z,215.95
2018-06-09T05:18:53.623Z,232.35
2018-06-09T05:19:58.249Z,212.95
2018-06-09T05:21:02.049Z,205.90
2018-06-09T05:22:06.182Z,211.87
2018-06-09T05:23:10.324Z,205.72
2018-06-09T05:24:14.525Z,203.83
2018-06-09T05:25:18.939Z,202.72
2018-06-09T05:26:22.752Z,231.35
2018-06-09T05:27:27.262Z,200.38
2018-06-09T05:28:31.167Z,195.12
2018-06-09T05:29:37.852Z,198.85
2018-06-09T05:30:43.350Z,205.35
2018-06-09T05:31:47.164Z,184.65
2018-06-09T05:32:51.007Z,212.68
2018-06-09T05:33:54.770Z,206.43
2018-06-09T05:34:58.577Z,188.03
2018-06-09T05:36:02.347Z,199.35
2018-06-09T05:37:06.115Z,212.17
2018-06-09T05:38:10.088Z,208.35
2018-06-09T05:39:14.769Z,227.07
2018-06-09T05:40:18.552Z,204.33
2018-06-09T05:41:22.339Z,201.82
2018-06-09T05:42:26.094Z,210.08
2018-06-09T05:43:31.124Z,200.13
2018-06-09T05:44:34.910Z,214.93
2018-06-09T05:45:38.754Z,205.90
2018-06-09T05:46:42.596Z,205.15
2018-06-09T05:47:49.555Z,198.78
2018-06-09T05:48:56.391Z,205.67
2018-06-09T05:50:00.198Z,196.65
2018-06-09T05:51:04.134Z,212.88
2018-06-09T05:52:09.162Z,198.72
2018-06-09T05:53:13.145Z,199.20
2018-06-09T05:54:16.884Z,194.15
2018-06-09T05:55:20.927Z,199.93
2018-06-09T05:56:26.024Z,208.35
2018-06-09T05:57:29.979Z,193.70
2018-06-09T05:58:33.864Z,200.05
2018-06-09T05:59:37.629Z,198.10
2018-06-09T06:00:41.680Z,215.15
2018-06-09T06:01:45.468Z,215.62
2018-06-09T06:02:49.614Z,205.60
2018-06-09T06:03:53.407Z,210.55
2018-06-09T06:04:58.415Z,201.05
2018-06-09T06:06:02.292Z,202.10
2018-06-09T06:07:06.115Z,219.95
2018-06-09T06:08:10.056Z,227.05
2018-06-09T06:09:13.889Z,218.97
2018-06-09T06:10:17.770Z,217.82
2018-06-09T06:11:21.625Z,207.37
2018-06-09T06:12:25.831Z,220.67
2018-06-09T06:13:30.452Z,233.00
2018-06-09T06:14:34.260Z,194.70
2018-06-09T06:15:38.075Z,208.07
2018-06-09T06:16:41.923Z,203.52
2018-06-09T06:17:47.233Z,204.87
2018-06-09T06:18:51.984Z,211.68
2018-06-09T06:19:56.590Z,213.80
2018-06-09T06:21:02.895Z,206.35
2018-06-09T06:22:09.314Z,195.12
2018-06-09T06:23:15.866Z,204.28
2018-06-09T06:24:21.238Z,183.18
2018-06-09T06:25:26.734Z,184.00
2018-06-09T06:26:33.518Z,182.88
2018-06-09T06:27:39.030Z,183.00
2018-06-09T06:28:46.320Z,178.55
2018-06-09T06:29:51.677Z,180.42
2018-06-09T06:30:57.294Z,164.85
2018-06-09T06:32:08.692Z,175.72
2018-06-09T06:33:16.153Z,177.00
2018-06-09T06:34:29.534Z,186.32
2018-06-09T06:35:33.291Z,180.60
2018-06-09T06:36:37.049Z,169.07
2018-06-09T06:37:40.838Z,173.25
2018-06-09T06:38:44.598Z,171.75
2018-06-09T06:39:49.564Z,166.30
2018-06-09T06:40:53.436Z,170.55
2018-06-09T06:41:57.219Z,168.07
2018-06-09T06:43:01.613Z,180.30
2018-06-09T06:44:05.425Z,169.32
2018-06-09T06:45:09.651Z,164.15
2018-06-09T06:46:14.236Z,170.07
2018-06-09T06:47:21.690Z,164.72
2018-06-09T06:48:26.636Z,163.75
2018-06-09T06:49:30.501Z,149.90
2018-06-09T06:50:34.520Z,152.47
2018-06-09T06:51:38.300Z,154.68
2018-06-09T06:52:42.114Z,152.27
2018-06-09T06:53:45.933Z,146.45
2018-06-09T06:54:49.659Z,157.27
2018-06-09T06:55:53.392Z,159.00
2018-06-09T06:56:57.107Z,147.40
2018-06-09T06:58:00.875Z,148.55
2018-06-09T06:59:04.675Z,141.12
2018-06-09T07:00:08.426Z,135.75
2018-06-09T07:01:12.686Z,135.93
2018-06-09T07:02:16.407Z,142.45
2018-06-09T07:03:21.336Z,139.97
2018-06-09T07:04:26.758Z,145.47
2018-06-09T07:05:30.582Z,152.77
2018-06-09T07:06:34.305Z,151.07
2018-06-09T07:07:38.028Z,151.80
2018-06-09T07:08:41.791Z,147.28
2018-06-09T07:09:45.532Z,144.65
2018-06-09T07:10:49.451Z,156.02
2018-06-09T07:11:53.246Z,157.40
2018-06-09T07:12:57.068Z,155.80
2018-06-09T07:14:01.253Z,149.55
2018-06-09T07:15:05.614Z,162.53
2018-06-09T07:16:09.608Z,149.32
2018-06-09T07:17:13.538Z,159.37
2018-06-09T07:18:17.748Z,162.30
2018-06-09T07:19:21.619Z,153.47
2018-06-09T07:20:25.776Z,161.40
2018-06-09T07:21:31.272Z,156.85
2018-06-09T07:22:39.692Z,157.03
2018-06-09T07:23:44.975Z,145.80
2018-06-09T07:24:52.852Z,157.10
2018-06-09T07:25:57.415Z,156.22
2018-06-09T07:27:01.823Z,144.30
2018-06-09T07:28:05.670Z,145.92
2018-06-09T07:29:09.419Z,155.85
2018-06-09T07:30:13.192Z,161.32
2018-06-09T07:31:17.908Z,150.97
2018-06-09T07:32:21.835Z,148.20
2018-06-09T07:33:25.623Z,152.40
2018-06-09T07:34:33.157Z,131.78
2018-06-09T07:35:37.219Z,131.87
2018-06-09T07:36:41.063Z,136.88
2018-06-09T07:37:44.888Z,134.30
2018-06-09T07:38:49.065Z,141.53
2018-06-09T07:39:53.116Z,144.82
2018-06-09T07:40:56.966Z,136.70
2018-06-09T07:42:00.856Z,142.32
2018-06-09T07:43:06.135Z,146.93
2018-06-09T07:44:09.983Z,155.15
2018-06-09T07:45:14.751Z,156.40
2018-06-09T07:46:18.523Z,159.03
2018-06-09T07:47:22.287Z,161.47
2018-06-09T07:48:26.386Z,153.72
2018-06-09T07:49:30.656Z,143.15
2018-06-09T07:50:34.542Z,142.22
2018-06-09T07:51:39.887Z,138.32
2018-06-09T07:52:43.662Z,139.25
2018-06-09T07:53:47.441Z,151.22
2018-06-09T07:54:51.222Z,148.30
2018-06-09T07:55:55.279Z,146.15
2018-06-09T07:56:59.071Z,145.20
2018-06-09T07:58:02.891Z,144.37
2018-06-09T07:59:06.707Z,139.30
2018-06-09T08:00:13.863Z,150.45
2018-06-09T08:01:17.737Z,147.02
2018-06-09T08:02:21.558Z,144.45
2018-06-09T08:03:25.709Z,147.75
2018-06-09T08:04:29.493Z,135.18
2018-06-09T08:05:34.319Z,138.10
2018-06-09T08:06:40.780Z,144.53
2018-06-09T08:07:44.640Z,135.40
2018-06-09T08:08:48.486Z,139.10
2018-06-09T08:09:53.502Z,143.78
2018-06-09T08:10:57.354Z,151.50
2018-06-09T08:12:01.405Z,148.20
2018-06-09T08:13:05.561Z,153.65
2018-06-09T08:14:09.663Z,150.35
2018-06-09T08:15:14.477Z,150.65
2018-06-09T08:16:18.342Z,141.20
2018-06-09T08:17:22.139Z,135.57
2018-06-09T08:18:26.446Z,148.40
2018-06-09T08:19:30.553Z,140.35
2018-06-09T08:20:34.513Z,170.43
2018-06-09T08:21:39.188Z,140.23
2018-06-09T08:22:43.096Z,142.75
2018-06-09T08:23:46.890Z,127.27
2018-06-09T08:24:51.994Z,126.25
2018-06-09T08:25:56.915Z,134.10
2018-06-09T08:27:03.331Z,129.78
2018-06-09T08:28:07.638Z,124.78
2018-06-09T08:29:11.493Z,118.37
2018-06-09T08:30:23.123Z,117.93
2018-06-09T08:31:31.032Z,116.33
2018-06-09T08:32:37.629Z,122.40
2018-06-09T08:33:42.579Z,127.97
2018-06-09T08:34:47.506Z,132.18
2018-06-09T08:35:51.304Z,123.33
2018-06-09T08:36:55.084Z,117.05
2018-06-09T08:38:01.005Z,130.67
2018-06-09T08:39:07.505Z,106.87
2018-06-09T08:40:15.295Z,114.05
2018-06-09T08:41:23.720Z,114.03
2018-06-09T08:42:27.523Z,118.33
2018-06-09T08:43:33.915Z,108.05
2018-06-09T08:44:40.331Z,112.12
2018-06-09T08:45:44.162Z,99.65
2018-06-09T08:46:49.752Z,105.32
2018-06-09T08:47:53.524Z,103.65
2018-06-09T08:48:57.319Z,101.47
2018-06-09T08:50:01.537Z,111.15
2018-06-09T08:51:05.284Z,93.78
2018-06-09T08:52:09.139Z,94.28
2018-06-09T08:53:12.975Z,90.42
2018-06-09T08:54:18.306Z,90.65
2018-06-09T08:55:22.137Z,89.03
2018-06-09T08:56:26.018Z,87.85
2018-06-09T08:57:29.798Z,89.65
2018-06-09T08:58:33.559Z,88.15
2018-06-09T08:59:38.441Z,90.70
2018-06-09T09:00:43.564Z,79.58
2018-06-09T09:01:47.618Z,83.62
2018-06-09T09:02:51.503Z,78.12
2018-06-09T09:03:57.547Z,85.43
2018-06-09T09:05:01.349Z,77.55
2018-06-09T09:06:05.296Z,80.45
2018-06-09T09:07:09.165Z,81.05
2018-06-09T09:08:13.192Z,84.28
2018-06-09T09:09:16.995Z,87.65
2018-06-09T09:10:20.879Z,83.42
2018-06-09T09:11:25.036Z,76.42
2018-06-09T09:12:29.106Z,73.35
2018-06-09T09:13:33.107Z,80.75
2018-06-09T09:14:36.982Z,81.28
2018-06-09T09:15:41.014Z,81.65
2018-06-09T09:16:44.889Z,81.22
2018-06-09T09:17:48.709Z,78.45
2018-06-09T09:18:54.367Z,68.70
2018-06-09T09:19:58.423Z,73.78
2018-06-09T09:21:02.832Z,78.42
2018-06-09T09:22:08.224Z,73.20
2018-06-09T09:23:12.165Z,80.57
2018-06-09T09:24:15.988Z,73.10
2018-06-09T09:25:19.752Z,74.55
2018-06-09T09:26:25.104Z,77.22
2018-06-09T09:27:29.391Z,75.97
2018-06-09T09:28:33.211Z,79.32
2018-06-09T09:29:37.199Z,73.30
2018-06-09T09:30:47.475Z,75.30
2018-06-09T09:32:10.554Z,79.07
2018-06-09T09:33:15.666Z,74.37
2018-06-09T09:34:21.451Z,74.20
2018-06-09T09:35:27.497Z,71.17
2018-06-09T09:36:32.029Z,69.77
2018-06-09T09:37:39.813Z,93.95
2018-06-09T09:38:43.841Z,63.73
2018-06-09T09:39:49.467Z,70.20
2018-06-09T09:40:58.131Z,71.85
2018-06-09T09:42:02.656Z,64.75
2018-06-09T09:43:06.525Z,69.97
2018-06-09T09:44:10.417Z,66.65
2018-06-09T09:45:15.549Z,65.28
2018-06-09T09:46:19.937Z,69.35
2018-06-09T09:47:27.366Z,69.30
2018-06-09T09:48:40.436Z,64.42
2018-06-09T09:49:58.753Z,74.65
2018-06-09T09:51:02.774Z,71.02
2018-06-09T09:52:21.487Z,75.80
2018-06-09T09:53:39.493Z,73.37
2018-06-09T09:54:44.119Z,64.07
2018-06-09T09:55:49.965Z,64.87
2018-06-09T09:56:55.397Z,70.28
2018-06-09T09:58:01.475Z,75.70
2018-06-09T09:59:05.529Z,69.22
2018-06-09T10:00:09.255Z,65.03
2018-06-09T10:01:14.374Z,63.93
2018-06-09T10:02:18.289Z,61.45
2018-06-09T10:03:22.918Z,64.40
2018-06-09T10:04:27.502Z,66.60
2018-06-09T10:05:32.159Z,65.78
2018-06-09T10:06:39.612Z,68.12
2018-06-09T10:07:44.261Z,66.25
2018-06-09T10:08:48.188Z,80.15
2018-06-09T10:09:52.254Z,70.17
2018-06-09T10:10:56.285Z,67.67
2018-06-09T10:12:01.160Z,71.37
2018-06-09T10:13:08.158Z,65.22
2018-06-09T10:14:12.222Z,62.03
2018-06-09T10:15:20.993Z,66.77
2018-06-09T10:16:25.859Z,60.03
2018-06-09T10:17:30.096Z,65.12
2018-06-09T10:18:36.448Z,67.03
2018-06-09T10:19:40.528Z,59.58
2018-06-09T10:20:46.297Z,68.02
2018-06-09T10:21:50.238Z,65.45
2018-06-09T10:22:55.012Z,62.38
2018-06-09T10:24:01.690Z,56.25
2018-06-09T10:25:05.583Z,56.28
2018-06-09T10:26:10.944Z,60.10
2018-06-09T10:27:15.966Z,60.43
2018-06-09T10:28:24.263Z,54.27
2018-06-09T10:29:28.259Z,57.65
2018-06-09T10:30:32.104Z,63.78
2018-06-09T10:31:37.026Z,70.95
2018-06-09T10:32:40.867Z,87.33
2018-06-09T10:33:44.869Z,70.65
2018-06-09T10:34:49.764Z,64.07
2018-06-09T10:35:56.509Z,74.72
2018-06-09T10:37:01.086Z,68.57
2018-06-09T10:38:04.833Z,122.22
2018-06-09T10:39:08.853Z,87.27
2018-06-09T10:40:13.755Z,125.97
2018-06-09T10:41:20.788Z,80.50
2018-06-09T10:42:25.422Z,75.10
2018-06-09T10:43:32.474Z,57.98
2018-06-09T10:44:36.211Z,82.88
2018-06-09T10:45:41.359Z,104.50
2018-06-09T10:46:45.456Z,70.87
2018-06-09T10:47:49.741Z,76.47
2018-06-09T10:48:53.492Z,74.97
2018-06-09T10:50:03.139Z,83.37
2018-06-09T10:51:08.354Z,67.23
2018-06-09T10:52:13.137Z,62.23
2018-06-09T10:53:18.386Z,85.45
2018-06-09T10:54:22.933Z,62.27
2018-06-09T10:55:34.090Z,97.50
2018-06-09T10:56:38.754Z,61.58
2018-06-09T10:57:47.098Z,63.20
2018-06-09T10:58:52.782Z,70.25
2018-06-09T10:59:57.475Z,48.30
2018-06-09T11:01:02.444Z,59.40
2018-06-09T11:02:10.731Z,52.40
2018-06-09T11:03:14.542Z,50.58
2018-06-09T11:04:20.528Z,65.50
2018-06-09T11:05:24.560Z,60.23
2018-06-09T11:06:28.515Z,65.80
2018-06-09T11:07:32.995Z,81.10
2018-06-09T11:08:41.584Z,188.87
2018-06-09T11:09:47.878Z,79.90
2018-06-09T11:10:51.655Z,60.27
2018-06-09T11:11:56.648Z,60.10
2018-06-09T11:13:02.208Z,66.33
2018-06-09T11:14:06.234Z,59.25
2018-06-09T11:15:10.827Z,63.60
2018-06-09T11:16:14.974Z,65.95
2018-06-09T11:17:19.152Z,64.95
2018-06-09T11:18:25.107Z,64.22
2018-06-09T11:19:31.811Z,69.53
2018-06-09T11:20:36.022Z,62.03
2018-06-09T11:21:43.334Z,63.38
2018-06-09T11:22:47.198Z,56.73
2018-06-09T11:23:51.074Z,60.08
2018-06-09T11:24:55.187Z,70.75
2018-06-09T11:25:59.365Z,51.13
2018-06-09T11:27:03.241Z,92.40
2018-06-09T11:28:07.051Z,69.62
2018-06-09T11:29:12.742Z,47.40
2018-06-09T11:30:17.463Z,82.72
2018-06-09T11:31:21.443Z,46.88
2018-06-09T11:32:25.279Z,93.58
2018-06-09T11:33:29.276Z,71.28
2018-06-09T11:34:33.053Z,54.40
2018-06-09T11:35:39.405Z,64.03
2018-06-09T11:36:44.392Z,60.08
2018-06-09T11:37:48.316Z,52.60
2018-06-09T11:38:55.178Z,55.73
2018-06-09T11:39:59.256Z,49.45
2018-06-09T11:41:03.087Z,44.93
2018-06-09T11:42:13.084Z,48.55
2018-06-09T11:43:17.081Z,47.88
2018-06-09T11:44:22.436Z,40.87
2018-06-09T11:45:26.357Z,50.73
2018-06-09T11:46:30.284Z,47.85
2018-06-09T11:47:37.973Z,41.18
2018-06-09T11:48:42.984Z,47.15
2018-06-09T11:49:47.592Z,51.63
2018-06-09T11:50:51.577Z,48.05
2018-06-09T11:51:55.339Z,50.48
2018-06-09T11:52:59.793Z,43.60
2018-06-09T11:54:06.967Z,43.28
2018-06-09T11:55:10.977Z,42.13
2018-06-09T11:56:14.746Z,47.73
2018-06-09T11:57:18.909Z,40.52
2018-06-09T11:58:22.978Z,42.78
2018-06-09T11:59:26.939Z,43.83
2018-06-09T12:00:31.900Z,54.50
2018-06-09T12:01:35.688Z,51.63
2018-06-09T12:02:39.528Z,51.10
2018-06-09T12:03:43.318Z,57.10
2018-06-09T12:04:47.436Z,54.30
2018-06-09T12:05:51.433Z,64.42
2018-06-09T12:06:56.706Z,58.63
2018-06-09T12:08:00.659Z,42.35
2018-06-09T12:09:06.469Z,42.67
2018-06-09T12:10:10.547Z,48.35
2018-06-09T12:11:21.244Z,48.48
2018-06-09T12:12:25.269Z,43.75
2018-06-09T12:13:31.431Z,42.65
2018-06-09T12:14:37.523Z,46.58
2018-06-09T12:15:41.529Z,49.05
2018-06-09T12:16:47.112Z,44.60
2018-06-09T12:17:53.731Z,49.33
2018-06-09T12:18:59.741Z,41.85
2018-06-09T12:20:03.637Z,48.28
2018-06-09T12:21:10.864Z,54.00
2018-06-09T12:22:14.618Z,53.50
2018-06-09T12:23:19.205Z,53.60
2018-06-09T12:24:22.973Z,46.58
2018-06-09T12:25:27.435Z,47.60
2018-06-09T12:26:31.699Z,45.03
2018-06-09T12:27:36.378Z,50.52
2018-06-09T12:28:40.188Z,44.50
2018-06-09T12:29:43.981Z,45.38
2018-06-09T12:30:48.766Z,44.63
2018-06-09T12:31:52.664Z,47.67
2018-06-09T12:32:57.390Z,42.83
2018-06-09T12:34:01.265Z,53.13
2018-06-09T12:35:05.079Z,51.77
2018-06-09T12:36:10.128Z,44.05
2018-06-09T12:37:14.994Z,46.60
2018-06-09T12:38:18.862Z,49.30
2018-06-09T12:39:22.700Z,52.20
2018-06-09T12:40:27.620Z,41.55
2018-06-09T12:41:31.831Z,41.75
2018-06-09T12:42:37.293Z,44.27
2018-06-09T12:43:41.596Z,44.33
2018-06-09T12:44:46.445Z,54.58
2018-06-09T12:45:50.543Z,56.77
2018-06-09T12:46:55.712Z,58.65
2018-06-09T12:47:59.574Z,50.67
2018-06-09T12:49:03.385Z,47.10
2018-06-09T12:50:07.876Z,49.10
2018-06-09T12:51:11.679Z,65.28
2018-06-09T12:52:16.256Z,143.07
2018-06-09T12:53:21.570Z,87.40
2018-06-09T12:54:25.435Z,57.03
2018-06-09T12:55:29.222Z,76.35
2018-06-09T12:56:34.538Z,70.27
2018-06-09T12:57:40.779Z,64.57
2018-06-09T12:58:45.726Z,44.73
2018-06-09T12:59:50.356Z,45.52
2018-06-09T13:00:54.598Z,54.40
2018-06-09T13:02:00.134Z,54.70
2018-06-09T13:03:05.083Z,48.45
2018-06-09T13:04:08.873Z,37.45
2018-06-09T13:05:18.639Z,37.83
2018-06-09T13:07:34.222Z,36.68
2018-06-09T13:08:39.446Z,43.60
2018-06-09T13:09:45.841Z,35.85
2018-06-09T13:10:50.041Z,40.78
2018-06-09T13:11:55.870Z,35.95
2018-06-09T13:13:00.968Z,32.28
2018-06-09T13:14:07.676Z,32.73
2018-06-09T13:15:11.619Z,37.30
2018-06-09T13:16:17.030Z,32.70
2018-06-09T13:17:21.820Z,31.85
2018-06-09T13:18:27.130Z,33.85
2018-06-09T13:19:32.610Z,29.10
2018-06-09T13:20:36.583Z,30.35
2018-06-09T13:21:40.355Z,36.28
2018-06-09T13:22:47.359Z,29.72
2018-06-09T13:23:51.230Z,35.20
2018-06-09T13:24:55.280Z,26.75
2018-06-09T13:26:00.184Z,29.52
2018-06-09T13:27:04.969Z,31.02
2018-06-09T13:28:09.196Z,30.77
2018-06-09T13:29:13.212Z,28.05
2018-06-09T13:30:17.505Z,26.00
2018-06-09T13:31:21.447Z,36.28
2018-06-09T13:32:25.452Z,29.60
2018-06-09T13:33:31.653Z,36.20
2018-06-09T13:34:35.623Z,32.65
2018-06-09T13:35:40.482Z,28.73
2018-06-09T13:36:46.641Z,26.50
2018-06-09T13:37:50.571Z,31.48
2018-06-09T13:38:55.251Z,38.85
2018-06-09T13:39:59.496Z,29.67
2018-06-09T13:41:03.493Z,56.00